Marcel — ONDP — position and weather

sailwx.info

Track history (hours):
 
Tides and Currents Weather Stations Pressure Air Temp Water Temp Dewpoint Dewpoint Depression Visibility Wind Speed Wind Dir Waves Ship Positions

Marcel

Last reported at 2018-Jun-23 19:42 UTC. Time now 2018-Jun-24 16:55 UTC.
Position N 36°60' E 003°28'.

Length 88 m; draft 4.5 m.

Type: Cargo ship. MMSI: 205439000.

Date/timePositionNaut miles runAvg speedWind from/ knotsBaromVisibWave heightAir tempDewpointWater temp
2018-Jun-23 19:42N 36°60' E 003°28'76 9.2
2018-Jun-23 11:28N 36°49' E 001°54'6 9.9
2018-Jun-23 10:55N 36°48' E 001°47'4110.4
2018-Jun-23 06:56N 36°42' E 000°57'7 9.9
2018-Jun-23 06:12N 36°41' E 000°48'2 9.5
2018-Jun-23 06:00N 36°41' E 000°45'5 9.4
2018-Jun-23 05:29N 36°40' E 000°39'6 9.5
2018-Jun-23 04:49N 36°39' E 000°31'3 9.4
2018-Jun-23 04:29N 36°39' E 000°28'5 9.5
2018-Jun-23 04:00N 36°38' E 000°22'5 9.5
2018-Jun-23 03:29N 36°38' E 000°16'  
2018-Jun-19 01:32N 37°15' W 009°29'010.6
2018-Jun-19 01:30N 37°15' W 009°29'510.5
2018-Jun-19 01:01N 37°20' W 009°27'510.3
2018-Jun-19 00:31N 37°25' W 009°25'5 9.9
2018-Jun-19 00:00N 37°30' W 009°23'5 9.7
2018-Jun-18 23:30N 37°34' W 009°21'510.6
2018-Jun-18 23:00N 37°39' W 009°19'510.3
2018-Jun-18 22:31N 37°44' W 009°17'510.0
2018-Jun-18 22:00N 37°49' W 009°15'5 9.4
2018-Jun-18 21:31N 37°53' W 009°13'5 9.8
2018-Jun-18 21:00N 37°58' W 009°11'510.2
2018-Jun-18 20:30N 38°03' W 009°09'5 9.9
2018-Jun-18 20:00N 38°07' W 009°07'5 9.8
2018-Jun-18 19:31N 38°12' W 009°05'510.1
2018-Jun-18 19:00N 38°17' W 009°03'5 9.9
2018-Jun-18 18:30N 38°22' W 009°01'510.0
2018-Jun-18 18:00N 38°26' W 008°59'4 8.9
2018-Jun-18 17:30N 38°30' W 008°55'2 0.3
2018-Jun-18 08:09N 38°31' W 008°53'0 0.0
2018-Jun-18 08:00N 38°31' W 008°53'0 0.0
2018-Jun-18 05:48N 38°31' W 008°53'0 0.0
2018-Jun-18 05:28N 38°31' W 008°53'0 0.0
2018-Jun-18 04:55N 38°31' W 008°53'0 0.0
2018-Jun-18 04:30N 38°31' W 008°53'0 0.0
2018-Jun-18 04:00N 38°31' W 008°53'0 0.0
2018-Jun-18 03:28N 38°31' W 008°53'0 0.0
2018-Jun-18 01:28N 38°31' W 008°53'0 0.0
2018-Jun-18 01:00N 38°31' W 008°53'0 0.0
2018-Jun-18 00:26N 38°31' W 008°53'0 0.0
2018-Jun-17 23:40N 38°31' W 008°53'0 0.0
2018-Jun-17 23:29N 38°31' W 008°53'0 0.0
2018-Jun-17 22:49N 38°31' W 008°53'0 0.0
2018-Jun-17 22:25N 38°31' W 008°53'0 0.0
2018-Jun-17 21:58N 38°31' W 008°53'0 0.0
2018-Jun-17 21:04N 38°31' W 008°53'0 0.0
2018-Jun-17 20:31N 38°31' W 008°53'0 0.0
2018-Jun-17 20:20N 38°31' W 008°53'0 0.0
2018-Jun-17 17:11N 38°31' W 008°53'0 0.0
2018-Jun-15 17:05N 38°31' W 008°53'  
Track history (hours):
 
Tides and Currents Weather Stations Pressure Air Temp Water Temp Dewpoint Dewpoint Depression Visibility Wind Speed Wind Dir Waves Ship Positions

Marcel

Last reported at 2018-Jun-23 19:42 UTC. Time now 2018-Jun-24 16:55 UTC.
Position N 36°60' E 003°28'.

Length 88 m; draft 4.5 m.

Type: Cargo ship. MMSI: 205439000.

Date/timePositionNaut miles runAvg speedWind from/ knotsBaromVisibWave heightAir tempDewpointWater temp
2018-Jun-23 19:42N 36°60' E 003°28'76 9.2
2018-Jun-23 11:28N 36°49' E 001°54'6 9.9
2018-Jun-23 10:55N 36°48' E 001°47'4110.4
2018-Jun-23 06:56N 36°42' E 000°57'7 9.9
2018-Jun-23 06:12N 36°41' E 000°48'2 9.5
2018-Jun-23 06:00N 36°41' E 000°45'5 9.4
2018-Jun-23 05:29N 36°40' E 000°39'6 9.5
2018-Jun-23 04:49N 36°39' E 000°31'3 9.4
2018-Jun-23 04:29N 36°39' E 000°28'5 9.5
2018-Jun-23 04:00N 36°38' E 000°22'5 9.5
2018-Jun-23 03:29N 36°38' E 000°16'  
2018-Jun-19 01:32N 37°15' W 009°29'010.6
2018-Jun-19 01:30N 37°15' W 009°29'510.5
2018-Jun-19 01:01N 37°20' W 009°27'510.3
2018-Jun-19 00:31N 37°25' W 009°25'5 9.9
2018-Jun-19 00:00N 37°30' W 009°23'5 9.7
2018-Jun-18 23:30N 37°34' W 009°21'510.6
2018-Jun-18 23:00N 37°39' W 009°19'510.3
2018-Jun-18 22:31N 37°44' W 009°17'510.0
2018-Jun-18 22:00N 37°49' W 009°15'5 9.4
2018-Jun-18 21:31N 37°53' W 009°13'5 9.8
2018-Jun-18 21:00N 37°58' W 009°11'510.2
2018-Jun-18 20:30N 38°03' W 009°09'5 9.9
2018-Jun-18 20:00N 38°07' W 009°07'5 9.8
2018-Jun-18 19:31N 38°12' W 009°05'510.1
2018-Jun-18 19:00N 38°17' W 009°03'5 9.9
2018-Jun-18 18:30N 38°22' W 009°01'510.0
2018-Jun-18 18:00N 38°26' W 008°59'4 8.9
2018-Jun-18 17:30N 38°30' W 008°55'2 0.3
2018-Jun-18 08:09N 38°31' W 008°53'0 0.0
2018-Jun-18 08:00N 38°31' W 008°53'0 0.0
2018-Jun-18 05:48N 38°31' W 008°53'0 0.0
2018-Jun-18 05:28N 38°31' W 008°53'0 0.0
2018-Jun-18 04:55N 38°31' W 008°53'0 0.0
2018-Jun-18 04:30N 38°31' W 008°53'0 0.0
2018-Jun-18 04:00N 38°31' W 008°53'0 0.0
2018-Jun-18 03:28N 38°31' W 008°53'0 0.0
2018-Jun-18 01:28N 38°31' W 008°53'0 0.0
2018-Jun-18 01:00N 38°31' W 008°53'0 0.0
2018-Jun-18 00:26N 38°31' W 008°53'0 0.0
2018-Jun-17 23:40N 38°31' W 008°53'0 0.0
2018-Jun-17 23:29N 38°31' W 008°53'0 0.0
2018-Jun-17 22:49N 38°31' W 008°53'0 0.0
2018-Jun-17 22:25N 38°31' W 008°53'0 0.0
2018-Jun-17 21:58N 38°31' W 008°53'0 0.0
2018-Jun-17 21:04N 38°31' W 008°53'0 0.0
2018-Jun-17 20:31N 38°31' W 008°53'0 0.0
2018-Jun-17 20:20N 38°31' W 008°53'0 0.0
2018-Jun-17 17:11N 38°31' W 008°53'0 0.0
2018-Jun-15 17:05N 38°31' W 008°53'  

Dump ship's entire track history